Terminal Aerodrome Forecast
Issued by NWS Los Angeles, CA

Home | Current Version | Previous Version | Text Only | Print | Product List | Glossary On
Versions: 1 2 3 4 5 6 7 8 9 10 11 12 13 14 15 16 17 18 19 20 21 22 23 24 25 26 27
000
FTUS46 KLOX 011126
TAFSMX
TAF
KSMX 011126Z 0112/0212 VRB03KT 3SM BR FEW003 BKN250
     FM011600 VRB03KT P6SM BKN150
     FM011900 30008KT P6SM SCT080 BKN120
     FM020400 VRB03KT P6SM SCT150=

USA.gov is the U.S. government's official web portal to all federal, state and local government web resources and services.